ΕΜΥ, Εθνική Μετεωρολογική Υπηρεσία - Δελτία Καιρού, Προγνώσεις

ΑΕΡΟΝΑΥΤΙΛΙΑ

GREEK AIRPORTS CODES

TAF LGKL 261100Z 2612/2621 34008KT 9999 BKN020 BKN080 TEMPO 2612/2615 4000 SHRA FEW018TCU BKN020 BKN080 BECMG 2616/2618 FEW020 SCT080=

EUROPEAN AIRPORTS CODES